Time;durP1;ratioP1;P1;durP2;ratioP2;P2;SDS_P1;SDS_P2;PMS_P1;PMS_P2;Temp;Humidity;BMP_temperature;BMP_pressure;BME280_temperature;BME280_humidity;BME280_pressure;Samples;Min_cycle;Max_cycle;Signal;HPM_P1;HPM_P2
2021/04/11 00:00:50;;;;;;;27.13;24.33;;;8.90;99.90;;;;;;5053689;28;20201;-35
2021/04/11 00:03:19;;;;;;;28.75;25.95;;;8.80;99.90;;;;;;5052631;28;20734;-36
2021/04/11 00:05:47;;;;;;;28.73;25.80;;;8.90;99.90;;;;;;5049829;28;20569;-36
2021/04/11 00:08:15;;;;;;;27.80;24.88;;;8.90;99.90;;;;;;5045276;28;20269;-36
2021/04/11 00:10:46;;;;;;;25.45;22.92;;;8.90;99.90;;;;;;5042051;28;20282;-35
2021/04/11 00:13:17;;;;;;;27.40;24.70;;;8.90;99.90;;;;;;5040509;28;20215;-37
2021/04/11 00:15:44;;;;;;;25.65;23.17;;;8.90;99.90;;;;;;5050295;28;20225;-36
2021/04/11 00:18:11;;;;;;;26.70;24.10;;;9.00;99.90;;;;;;5045264;28;20582;-37
2021/04/11 00:20:39;;;;;;;27.63;24.98;;;8.90;99.90;;;;;;5041857;28;20734;-36
2021/04/11 00:23:06;;;;;;;26.85;24.02;;;9.00;99.90;;;;;;5043314;28;20213;-37
2021/04/11 00:25:35;;;;;;;27.20;24.27;;;8.90;99.90;;;;;;5046834;28;20203;-35
2021/04/11 00:28:03;;;;;;;29.40;26.40;;;8.90;99.90;;;;;;5042670;28;20208;-37
2021/04/11 00:30:30;;;;;;;26.92;22.88;;;8.90;99.90;;;;;;5041480;28;20701;-35
2021/04/11 00:32:59;;;;;;;27.23;24.60;;;8.90;99.90;;;;;;5044982;28;20245;-35
2021/04/11 00:35:26;;;;;;;28.45;25.58;;;8.90;99.90;;;;;;5040490;28;20204;-37
2021/04/11 00:37:54;;;;;;;29.10;26.17;;;8.80;99.90;;;;;;5042375;28;20199;-35
2021/04/11 00:40:26;;;;;;;28.73;25.83;;;8.90;99.90;;;;;;5044477;28;20304;-34
2021/04/11 00:42:57;;;;;;;27.95;25.30;;;9.00;99.90;;;;;;5041643;28;20319;-34
2021/04/11 00:45:30;;;;;;;27.00;24.40;;;9.00;99.90;;;;;;5043744;28;20282;-35
2021/04/11 00:47:57;;;;;;;26.75;23.95;;;9.00;99.90;;;;;;5042734;28;20639;-36
2021/04/11 00:50:25;;;;;;;30.13;26.92;;;9.00;99.90;;;;;;5042564;28;20856;-36
2021/04/11 00:52:52;;;;;;;28.50;25.60;;;9.00;99.90;;;;;;5043657;28;20215;-36
2021/04/11 00:55:24;;;;;;;28.45;25.65;;;8.90;99.90;;;;;;5040805;28;20710;-36
2021/04/11 00:57:54;;;;;;;27.25;24.52;;;9.00;99.90;;;;;;5042442;28;20195;-36
2021/04/11 01:00:25;;;;;;;30.52;27.42;;;9.00;99.90;;;;;;5041117;28;20311;-35
2021/04/11 01:02:53;;;;;;;29.27;26.35;;;9.00;99.90;;;;;;5038972;28;20226;-35
2021/04/11 01:05:23;;;;;;;28.38;25.70;;;9.00;99.90;;;;;;5042485;28;20190;-35
2021/04/11 01:07:51;;;;;;;30.75;27.77;;;9.00;99.90;;;;;;5041521;28;20244;-36
2021/04/11 01:10:22;;;;;;;26.48;23.98;;;9.10;99.90;;;;;;5040630;28;20188;-36
2021/04/11 01:12:49;;;;;;;28.38;25.50;;;9.00;99.90;;;;;;5043331;28;20215;-35
2021/04/11 01:15:20;;;;;;;29.92;26.23;;;9.00;99.90;;;;;;5040960;28;20571;-35
2021/04/11 01:17:48;;;;;;;29.13;26.00;;;9.00;99.90;;;;;;5043108;28;20337;-36
2021/04/11 01:20:17;;;;;;;28.95;25.85;;;9.00;99.90;;;;;;5043125;28;20194;-36
2021/04/11 01:23:07;;;;;;;28.65;25.88;;;9.00;99.90;;;;;;5041539;28;20594;-36
2021/04/11 01:25:37;;;;;;;31.63;28.45;;;9.00;99.90;;;;;;5032131;28;20333;-35
2021/04/11 01:28:08;;;;;;;27.75;24.85;;;9.00;99.90;;;;;;5039527;28;20292;-35
2021/04/11 01:30:39;;;;;;;29.63;26.50;;;9.10;99.90;;;;;;5042417;28;20261;-35
2021/04/11 01:33:09;;;;;;;27.23;24.52;;;9.00;99.90;;;;;;5042185;28;20223;-36
2021/04/11 01:35:37;;;;;;;26.52;23.92;;;8.90;99.90;;;;;;5044032;28;20341;-35
2021/04/11 01:38:06;;;;;;;26.98;24.27;;;8.80;99.90;;;;;;5055057;28;20195;-36
2021/04/11 01:40:39;;;;;;;26.67;24.08;;;8.80;99.90;;;;;;5040134;28;20196;-36
2021/04/11 01:43:10;;;;;;;24.65;21.13;;;8.90;99.90;;;;;;5041637;28;20214;-35
2021/04/11 01:45:40;;;;;;;27.08;24.42;;;8.70;99.90;;;;;;5041890;28;20265;-34
2021/04/11 01:48:09;;;;;;;27.63;24.98;;;8.80;99.90;;;;;;5038074;28;20216;-37
2021/04/11 01:50:39;;;;;;;26.15;23.55;;;8.70;99.90;;;;;;5049540;28;20205;-35
2021/04/11 01:53:07;;;;;;;25.40;22.83;;;8.80;99.90;;;;;;5049102;28;20220;-35
2021/04/11 01:55:34;;;;;;;26.20;23.55;;;8.80;99.90;;;;;;5050319;28;20281;-35
2021/04/11 01:58:03;;;;;;;26.70;24.17;;;8.80;99.90;;;;;;5050869;28;20197;-35
2021/04/11 02:00:34;;;;;;;26.88;24.25;;;8.90;99.90;;;;;;5049600;28;20211;-35
2021/04/11 02:03:07;;;;;;;27.08;24.30;;;8.80;99.90;;;;;;5049813;28;20236;-35
2021/04/11 02:05:38;;;;;;;26.67;23.90;;;8.80;99.90;;;;;;5050826;28;20203;-37
2021/04/11 02:08:08;;;;;;;26.08;23.55;;;8.80;99.90;;;;;;5029740;28;20772;-35
2021/04/11 02:10:47;;;;;;;26.67;24.00;;;8.90;99.90;;;;;;5048459;28;20200;-36
2021/04/11 02:13:21;;;;;;;29.85;26.80;;;8.90;99.90;;;;;;5050878;28;20605;-35
2021/04/11 02:15:52;;;;;;;29.70;26.70;;;8.90;99.90;;;;;;5049675;28;20201;-36
2021/04/11 02:18:22;;;;;;;28.73;25.75;;;8.90;99.90;;;;;;5035436;28;20192;-35
2021/04/11 02:20:52;;;;;;;30.42;26.48;;;8.90;99.90;;;;;;5041218;28;20195;-37
2021/04/11 02:23:22;;;;;;;29.50;26.33;;;8.90;99.90;;;;;;5049627;28;20212;-35
2021/04/11 02:25:51;;;;;;;30.83;27.73;;;9.00;99.90;;;;;;5031226;28;20204;-36
2021/04/11 02:28:24;;;;;;;29.55;26.45;;;9.00;99.90;;;;;;5046573;28;20233;-35
2021/04/11 02:30:53;;;;;;;32.08;28.25;;;8.90;99.90;;;;;;5050794;28;20209;-35
2021/04/11 02:33:21;;;;;;;29.75;26.65;;;8.90;99.90;;;;;;5049381;28;20653;-35
2021/04/11 02:35:48;;;;;;;28.75;25.75;;;9.00;99.90;;;;;;5050316;28;20677;-34
2021/04/11 02:38:18;;;;;;;29.83;26.63;;;9.00;99.90;;;;;;5050030;28;20185;-35
2021/04/11 02:40:48;;;;;;;29.02;25.95;;;9.10;99.90;;;;;;5050342;28;20291;-35
2021/04/11 02:43:34;;;;;;;29.70;26.23;;;9.20;99.90;;;;;;5029736;28;20743;-35
2021/04/11 02:46:04;;;;;;;30.10;27.00;;;9.20;99.90;;;;;;5039500;28;20272;-35
2021/04/11 02:48:31;;;;;;;27.85;25.00;;;9.20;99.90;;;;;;5051411;28;20609;-36
2021/04/11 02:51:07;;;;;;;27.88;24.73;;;9.20;99.90;;;;;;5050168;28;20274;-35
2021/04/11 02:53:42;;;;;;;29.92;26.05;;;9.20;99.90;;;;;;5050486;28;20588;-37
2021/04/11 02:56:17;;;;;;;28.27;25.27;;;9.10;99.90;;;;;;5046478;28;20336;-35
2021/04/11 02:58:48;;;;;;;32.13;28.73;;;9.10;99.90;;;;;;5049031;28;20206;-36
2021/04/11 03:01:21;;;;;;;28.02;25.13;;;9.20;99.90;;;;;;5048541;28;20194;-35
2021/04/11 03:03:49;;;;;;;28.95;25.95;;;9.20;99.90;;;;;;5049015;28;20223;-34
2021/04/11 03:06:21;;;;;;;29.52;25.55;;;9.20;99.90;;;;;;5049022;28;20674;-36
2021/04/11 03:08:56;;;;;;;26.75;24.00;;;9.20;99.90;;;;;;5048744;28;20197;-35
2021/04/11 03:11:35;;;;;;;28.13;25.30;;;9.20;99.90;;;;;;5049850;28;20206;-35
2021/04/11 03:14:07;;;;;;;26.65;23.85;;;9.20;99.90;;;;;;5048574;28;20209;-36
2021/04/11 03:16:40;;;;;;;29.25;26.20;;;9.30;99.90;;;;;;5048531;28;20596;-34
2021/04/11 03:19:14;;;;;;;29.70;26.70;;;9.30;99.90;;;;;;5048640;28;20612;-36
2021/04/11 03:21:42;;;;;;;29.67;26.52;;;9.30;99.90;;;;;;5050010;28;20203;-35
2021/04/11 03:24:11;;;;;;;28.45;25.45;;;9.30;99.90;;;;;;5048994;28;20199;-36
2021/04/11 03:26:45;;;;;;;30.95;27.05;;;9.40;99.90;;;;;;5049962;28;20215;-35
2021/04/11 03:29:22;;;;;;;27.67;24.85;;;9.40;99.90;;;;;;5049982;28;20202;-35
2021/04/11 03:31:55;;;;;;;28.52;25.52;;;9.30;99.90;;;;;;5048261;28;20226;-37
2021/04/11 03:34:23;;;;;;;30.92;27.80;;;9.30;99.90;;;;;;5048824;28;20250;-35
2021/04/11 03:36:52;;;;;;;34.28;28.80;;;9.30;99.90;;;;;;5048187;28;20536;-36
2021/04/11 03:39:19;;;;;;;33.33;29.02;;;9.40;99.90;;;;;;5048358;28;20292;-37
2021/04/11 03:41:47;;;;;;;30.60;27.13;;;9.40;99.90;;;;;;5048422;28;20195;-36
2021/04/11 03:44:20;;;;;;;30.67;27.38;;;9.50;99.90;;;;;;5040250;28;20195;-36
2021/04/11 03:47:02;;;;;;;31.63;28.33;;;9.40;99.90;;;;;;5049421;28;20226;-36
2021/04/11 03:49:41;;;;;;;31.75;27.48;;;9.40;99.90;;;;;;5049552;28;20319;-36
2021/04/11 03:52:12;;;;;;;34.80;29.80;;;9.50;99.90;;;;;;5049165;28;20241;-34
2021/04/11 03:54:43;;;;;;;32.47;29.25;;;9.50;99.90;;;;;;5048466;28;20324;-34
2021/04/11 03:57:15;;;;;;;32.15;28.60;;;9.50;99.90;;;;;;5048282;28;20227;-35
2021/04/11 03:59:50;;;;;;;33.40;29.42;;;9.50;99.90;;;;;;5048678;28;20202;-34
2021/04/11 04:02:19;;;;;;;32.33;28.27;;;9.50;99.90;;;;;;5048816;28;20533;-35
2021/04/11 04:04:47;;;;;;;31.52;28.30;;;9.50;99.90;;;;;;5042025;28;20200;-34
2021/04/11 04:07:18;;;;;;;32.53;29.02;;;9.60;99.90;;;;;;5048223;28;20281;-35
2021/04/11 04:10:00;;;;;;;30.63;27.52;;;9.60;99.90;;;;;;5047993;28;20673;-34
2021/04/11 04:12:53;;;;;;;31.33;28.08;;;9.60;99.90;;;;;;5051141;28;20234;-33
2021/04/11 04:15:38;;;;;;;32.70;28.02;;;9.50;99.90;;;;;;5032110;28;20700;-34
2021/04/11 04:18:35;;;;;;;33.63;28.85;;;9.40;99.90;;;;;;5042815;28;20226;-34
2021/04/11 04:21:15;;;;;;;31.77;27.63;;;9.40;99.90;;;;;;5037497;28;20575;-36
2021/04/11 04:23:51;;;;;;;29.90;26.48;;;9.50;99.90;;;;;;5052094;28;20267;-34
2021/04/11 04:26:37;;;;;;;32.58;28.50;;;9.40;99.90;;;;;;5051435;28;20227;-34
2021/04/11 04:29:19;;;;;;;30.98;27.73;;;9.60;99.90;;;;;;5051670;28;20669;-34
2021/04/11 04:32:00;;;;;;;33.28;27.65;;;9.50;99.90;;;;;;5051143;28;20677;-33
2021/04/11 04:34:39;;;;;;;34.22;29.75;;;9.40;99.90;;;;;;5051465;28;20191;-35
2021/04/11 04:37:17;;;;;;;33.15;29.52;;;9.40;99.90;;;;;;5051437;28;20243;-34
2021/04/11 04:39:54;;;;;;;37.00;31.27;;;9.30;99.90;;;;;;5052922;28;20210;-34
2021/04/11 04:42:42;;;;;;;35.95;32.05;;;9.30;99.90;;;;;;5052572;28;20223;-34
2021/04/11 04:45:14;;;;;;;35.70;30.10;;;9.20;99.90;;;;;;5051397;28;20199;-36
2021/04/11 04:48:12;;;;;;;34.13;30.45;;;9.10;99.90;;;;;;5053115;28;20297;-34
2021/04/11 04:50:46;;;;;;;36.30;30.13;;;9.10;99.90;;;;;;5052997;28;20215;-35
2021/04/11 04:53:23;;;;;;;42.50;32.58;;;9.10;99.90;;;;;;5051862;28;20213;-36
2021/04/11 04:55:55;;;;;;;33.65;28.75;;;9.10;99.90;;;;;;5053065;28;20204;-34
2021/04/11 04:58:27;;;;;;;31.77;28.38;;;9.10;99.90;;;;;;5052993;28;20292;-35
2021/04/11 05:00:58;;;;;;;35.03;29.83;;;9.20;99.90;;;;;;5053782;28;20339;-35
2021/04/11 05:03:35;;;;;;;31.92;27.92;;;9.30;99.90;;;;;;5051305;23;20295;-37
2021/04/11 05:06:26;;;;;;;34.13;29.27;;;9.40;99.90;;;;;;5019753;28;20687;-37
2021/04/11 05:09:11;;;;;;;32.50;29.05;;;9.40;99.90;;;;;;5012976;28;20570;-36
2021/04/11 05:11:46;;;;;;;37.25;29.20;;;9.20;99.90;;;;;;5005534;28;20222;-39
2021/04/11 05:14:20;;;;;;;36.22;31.35;;;9.20;99.90;;;;;;5027686;28;20254;-40
2021/04/11 05:16:52;;;;;;;32.88;29.20;;;9.30;99.90;;;;;;5009040;28;20645;-37
2021/04/11 05:19:24;;;;;;;37.42;31.52;;;9.30;99.90;;;;;;4994337;28;20635;-38
2021/04/11 05:22:07;;;;;;;36.28;30.50;;;9.40;99.90;;;;;;5003272;28;20410;-39
2021/04/11 05:24:40;;;;;;;35.88;32.25;;;9.50;99.90;;;;;;5008684;28;20209;-39
2021/04/11 05:27:12;;;;;;;35.17;30.63;;;9.50;99.90;;;;;;4993083;28;20212;-38
2021/04/11 05:29:52;;;;;;;37.88;31.70;;;9.40;99.90;;;;;;4991799;28;20684;-38
2021/04/11 05:32:21;;;;;;;34.03;29.92;;;9.40;99.90;;;;;;4995122;28;20216;-38
2021/04/11 05:34:49;;;;;;;39.42;32.75;;;9.50;99.90;;;;;;4998772;28;20260;-38
2021/04/11 05:37:28;;;;;;;36.78;30.88;;;9.40;99.90;;;;;;5002662;28;20192;-39
2021/04/11 05:40:03;;;;;;;34.63;29.75;;;9.50;99.90;;;;;;5012371;28;20199;-38
2021/04/11 05:42:36;;;;;;;34.25;30.55;;;9.40;99.90;;;;;;4978068;28;20590;-38
2021/04/11 05:45:10;;;;;;;35.50;30.90;;;9.40;99.90;;;;;;5006140;28;20196;-38
2021/04/11 05:47:48;;;;;;;35.20;30.63;;;9.50;99.90;;;;;;4999188;28;20223;-38
2021/04/11 05:50:20;;;;;;;34.47;30.10;;;9.60;99.90;;;;;;4992155;28;20228;-39
2021/04/11 05:52:52;;;;;;;32.55;29.02;;;9.70;99.90;;;;;;5005954;28;20711;-38
2021/04/11 05:55:23;;;;;;;33.03;29.20;;;9.70;99.90;;;;;;5008487;28;20564;-38
2021/04/11 05:57:55;;;;;;;32.72;29.17;;;9.80;99.90;;;;;;5010388;28;20197;-38
2021/04/11 06:00:26;;;;;;;32.53;29.13;;;9.80;99.90;;;;;;5011510;28;20676;-38
2021/04/11 06:02:57;;;;;;;32.97;29.42;;;9.90;99.90;;;;;;4986679;28;20727;-39
2021/04/11 06:05:29;;;;;;;30.98;27.35;;;9.90;99.90;;;;;;4993577;28;20265;-38
2021/04/11 06:08:04;;;;;;;31.77;27.30;;;9.90;99.90;;;;;;4992674;28;20225;-38
2021/04/11 06:10:34;;;;;;;31.15;27.73;;;10.10;99.90;;;;;;5004650;28;20379;-37
2021/04/11 06:13:05;;;;;;;31.45;27.63;;;10.10;99.90;;;;;;5003569;28;20213;-38
2021/04/11 06:15:34;;;;;;;32.63;28.75;;;10.20;99.90;;;;;;4991863;28;20228;-37
2021/04/11 06:18:05;;;;;;;30.80;27.48;;;10.10;99.90;;;;;;5001830;28;20226;-37
2021/04/11 06:20:34;;;;;;;34.58;29.20;;;10.00;99.90;;;;;;5005507;28;20205;-38
2021/04/11 06:23:11;;;;;;;30.58;27.40;;;10.00;99.90;;;;;;5004199;28;20213;-37
2021/04/11 06:25:42;;;;;;;29.80;26.58;;;10.10;99.90;;;;;;5006671;28;20209;-38
2021/04/11 06:28:14;;;;;;;28.33;25.42;;;10.10;99.90;;;;;;5001906;28;20223;-38
2021/04/11 06:30:50;;;;;;;30.05;26.23;;;10.10;99.90;;;;;;5003544;28;20217;-39
2021/04/11 06:33:24;;;;;;;28.88;25.85;;;10.10;99.90;;;;;;4998862;28;20217;-38
2021/04/11 06:35:56;;;;;;;32.97;26.35;;;10.10;99.90;;;;;;4991239;28;20204;-39
2021/04/11 06:38:29;;;;;;;29.98;26.88;;;10.10;99.90;;;;;;5003166;28;20189;-38
2021/04/11 06:41:29;;;;;;;28.52;25.65;;;10.00;99.90;;;;;;5001570;28;20196;-38
2021/04/11 06:44:18;;;;;;;29.15;26.05;;;10.10;99.90;;;;;;5005399;28;20220;-39
2021/04/11 06:47:01;;;;;;;31.23;27.65;;;10.10;99.90;;;;;;5009827;28;20219;-38
2021/04/11 06:50:02;;;;;;;31.40;26.40;;;10.00;99.90;;;;;;5011090;28;20196;-39
2021/04/11 06:52:51;;;;;;;32.65;27.17;;;10.10;99.90;;;;;;4994287;28;20228;-38
2021/04/11 06:55:34;;;;;;;29.58;26.60;;;10.10;99.90;;;;;;4997684;28;20515;-38
2021/04/11 06:58:10;;;;;;;29.85;26.80;;;10.40;99.90;;;;;;5001068;28;20672;-38
2021/04/11 07:01:10;;;;;;;29.70;25.42;;;10.40;99.90;;;;;;5010967;28;20203;-38
2021/04/11 07:04:28;;;;;;;29.35;25.60;;;10.50;99.90;;;;;;4991217;28;20608;-39
2021/04/11 07:07:37;;;;;;;26.25;23.10;;;10.50;99.90;;;;;;4993022;28;20312;-38
2021/04/11 07:10:20;;;;;;;28.45;25.40;;;10.60;99.90;;;;;;5002657;28;20223;-38
2021/04/11 07:13:24;;;;;;;27.83;24.92;;;10.60;99.90;;;;;;5008837;28;20246;-38
2021/04/11 07:16:20;;;;;;;30.50;27.17;;;10.70;99.90;;;;;;4999327;28;20185;-39
2021/04/11 07:19:24;;;;;;;29.33;25.95;;;10.70;99.90;;;;;;4989342;28;20214;-38
2021/04/11 07:22:17;;;;;;;27.63;24.90;;;10.70;99.90;;;;;;5010359;28;20276;-39
2021/04/11 07:24:50;;;;;;;26.45;23.65;;;10.80;99.90;;;;;;4997030;28;20196;-38
2021/04/11 07:27:31;;;;;;;25.50;22.92;;;10.70;99.90;;;;;;5001742;28;20217;-38
2021/04/11 07:30:27;;;;;;;29.20;25.15;;;10.70;99.90;;;;;;4971744;28;20204;-38
2021/04/11 07:33:17;;;;;;;26.80;23.30;;;10.70;99.90;;;;;;4993007;28;20251;-38
2021/04/11 07:36:00;;;;;;;26.13;23.40;;;10.70;99.90;;;;;;5007360;28;20209;-38
2021/04/11 07:38:47;;;;;;;27.63;23.45;;;10.70;99.90;;;;;;5010026;28;20215;-39
2021/04/11 07:41:41;;;;;;;25.27;22.45;;;10.70;99.90;;;;;;4985978;28;20208;-37
2021/04/11 07:44:44;;;;;;;24.77;22.38;;;10.80;99.90;;;;;;5006445;28;20726;-39
2021/04/11 07:47:42;;;;;;;28.65;25.55;;;10.70;99.90;;;;;;5000921;28;20242;-38
2021/04/11 07:50:20;;;;;;;25.88;23.13;;;10.90;99.90;;;;;;5003376;28;20221;-38
2021/04/11 07:53:11;;;;;;;25.80;23.20;;;11.00;99.90;;;;;;5013764;28;20707;-38
2021/04/11 07:55:46;;;;;;;24.95;22.38;;;11.10;99.90;;;;;;4994575;28;20668;-38
2021/04/11 07:58:37;;;;;;;24.13;21.42;;;11.10;99.90;;;;;;5006769;28;20231;-38
2021/04/11 08:01:35;;;;;;;24.85;22.23;;;11.10;99.90;;;;;;4999590;28;20691;-38
2021/04/11 08:04:26;;;;;;;24.30;20.63;;;11.20;99.90;;;;;;4978143;28;20228;-38
2021/04/11 08:07:15;;;;;;;24.05;21.55;;;11.10;99.90;;;;;;4994192;28;20198;-38
2021/04/11 08:09:50;;;;;;;21.73;19.63;;;11.20;99.90;;;;;;5025934;28;20212;-36
2021/04/11 08:12:59;;;;;;;23.67;21.27;;;11.30;99.90;;;;;;5003522;28;20285;-36
2021/04/11 08:15:33;;;;;;;24.42;21.88;;;11.30;99.90;;;;;;5009642;28;20200;-36
2021/04/11 08:18:20;;;;;;;22.58;20.15;;;11.20;99.90;;;;;;5011595;28;20212;-37
2021/04/11 08:21:01;;;;;;;20.73;18.08;;;11.30;99.90;;;;;;5008949;28;20219;-37
2021/04/11 08:24:09;;;;;;;20.85;18.65;;;11.30;99.90;;;;;;4983404;28;20220;-37
2021/04/11 08:27:07;;;;;;;19.88;17.85;;;11.30;99.90;;;;;;4985615;28;20208;-39
2021/04/11 08:30:03;;;;;;;20.92;18.75;;;11.30;99.90;;;;;;4995553;28;20568;-38
2021/04/11 08:32:55;;;;;;;20.10;17.80;;;11.30;99.90;;;;;;4995204;28;20286;-38
2021/04/11 08:35:35;;;;;;;18.58;16.65;;;11.30;99.90;;;;;;4993725;28;20681;-37
2021/04/11 08:38:31;;;;;;;22.88;20.58;;;11.30;99.90;;;;;;4993937;28;20277;-38
2021/04/11 08:41:21;;;;;;;21.15;19.08;;;11.30;99.90;;;;;;5006247;28;20196;-37
2021/04/11 08:44:06;;;;;;;22.13;19.88;;;11.30;99.90;;;;;;5000867;28;20270;-37
2021/04/11 08:46:50;;;;;;;22.38;19.95;;;11.30;99.90;;;;;;5004378;28;20208;-39
2021/04/11 08:49:23;;;;;;;21.92;19.58;;;11.30;99.90;;;;;;4993816;28;20228;-38
2021/04/11 08:52:00;;;;;;;29.55;26.38;;;11.40;99.90;;;;;;4998404;28;20189;-38
2021/04/11 08:54:43;;;;;;;15.20;13.38;;;11.30;99.90;;;;;;4983272;28;20205;-38
2021/04/11 08:57:16;;;;;;;10.80;9.68;;;11.40;99.90;;;;;;4989970;28;20206;-37
2021/04/11 08:59:55;;;;;;;9.50;8.43;;;11.30;99.90;;;;;;4991815;28;20296;-37
2021/04/11 09:02:31;;;;;;;10.40;9.38;;;11.20;99.90;;;;;;4994057;28;20500;-37
2021/04/11 09:05:10;;;;;;;10.23;9.13;;;11.20;99.90;;;;;;4994373;28;20209;-38
2021/04/11 09:07:49;;;;;;;9.07;8.15;;;11.20;99.90;;;;;;5007407;28;20216;-37
2021/04/11 09:10:28;;;;;;;8.18;7.20;;;11.20;99.90;;;;;;5008066;28;20197;-38
2021/04/11 09:13:06;;;;;;;8.43;7.63;;;11.10;99.90;;;;;;4993815;28;20757;-37
2021/04/11 09:15:44;;;;;;;10.15;8.57;;;11.10;99.90;;;;;;5005586;28;20245;-38
2021/04/11 09:18:21;;;;;;;7.43;6.82;;;11.10;99.90;;;;;;5024329;28;20193;-38
2021/04/11 09:21:00;;;;;;;6.18;5.50;;;11.20;99.90;;;;;;4989224;28;20217;-38
2021/04/11 09:23:42;;;;;;;5.70;5.00;;;11.10;99.90;;;;;;4993914;28;20225;-38
2021/04/11 09:26:51;;;;;;;6.25;5.75;;;11.00;99.90;;;;;;4993636;28;20211;-39
2021/04/11 09:29:33;;;;;;;5.45;5.05;;;11.00;99.90;;;;;;4992054;28;20193;-38
2021/04/11 09:32:23;;;;;;;6.18;5.57;;;10.80;99.90;;;;;;4994641;28;20203;-38
2021/04/11 09:35:08;;;;;;;6.70;6.10;;;10.90;99.90;;;;;;5003681;28;20204;-38
2021/04/11 09:38:08;;;;;;;6.18;5.68;;;10.90;99.90;;;;;;5002660;28;20765;-38
2021/04/11 09:40:50;;;;;;;5.88;5.38;;;11.10;99.90;;;;;;4972032;28;20260;-38
2021/04/11 09:43:35;;;;;;;5.13;4.72;;;11.10;99.90;;;;;;5010648;28;20243;-38
2021/04/11 09:46:33;;;;;;;5.78;5.30;;;11.10;99.90;;;;;;4992647;28;20582;-37
2021/04/11 09:49:08;;;;;;;5.13;4.22;;;11.30;99.90;;;;;;5002238;28;20738;-38
2021/04/11 09:51:52;;;;;;;4.00;3.70;;;11.30;99.90;;;;;;4999743;28;20202;-37
2021/04/11 09:54:27;;;;;;;4.38;4.07;;;11.00;99.90;;;;;;4994922;28;20208;-37
2021/04/11 09:57:43;;;;;;;4.00;3.70;;;11.00;99.90;;;;;;4995252;28;20778;-37
2021/04/11 10:00:17;;;;;;;3.08;2.88;;;10.80;99.90;;;;;;4929596;29;20683;-36
2021/04/11 10:03:00;;;;;;;3.65;3.35;;;10.90;99.90;;;;;;4939893;28;20246;-37
2021/04/11 10:05:36;;;;;;;3.05;2.85;;;11.00;99.90;;;;;;4977693;28;20208;-40
2021/04/11 10:08:38;;;;;;;4.45;3.08;;;10.90;99.90;;;;;;4984787;28;20221;-37
2021/04/11 10:11:17;;;;;;;2.25;2.10;;;10.90;99.90;;;;;;4973877;28;20200;-38
2021/04/11 10:14:04;;;;;;;3.10;2.90;;;10.70;99.90;;;;;;4995522;28;20220;-37
2021/04/11 10:16:41;;;;;;;2.92;2.72;;;10.80;99.90;;;;;;5006409;28;20203;-38
2021/04/11 10:19:28;;;;;;;3.00;2.75;;;10.70;99.90;;;;;;5003067;28;20473;-37
2021/04/11 10:22:07;;;;;;;9.23;7.30;;;10.90;99.90;;;;;;4999769;28;20631;-37
2021/04/11 10:24:44;;;;;;;10.95;8.05;;;11.20;99.90;;;;;;4995915;28;20685;-37
2021/04/11 10:27:21;;;;;;;7.28;6.60;;;11.20;99.90;;;;;;4995799;28;20282;-37
2021/04/11 10:29:49;;;;;;;7.95;7.13;;;11.30;99.90;;;;;;4991052;28;20208;-36
2021/04/11 10:32:26;;;;;;;8.35;7.63;;;11.10;99.90;;;;;;4996096;28;20228;-37
2021/04/11 10:35:01;;;;;;;9.13;8.23;;;11.20;99.90;;;;;;5003629;28;20195;-37
2021/04/11 10:37:35;;;;;;;8.88;7.63;;;11.20;99.90;;;;;;5004061;28;20193;-39
2021/04/11 10:40:15;;;;;;;8.93;8.07;;;11.00;99.90;;;;;;5004836;28;20195;-37
2021/04/11 10:42:56;;;;;;;12.18;9.82;;;10.70;99.90;;;;;;5002329;28;20723;-37
2021/04/11 10:45:33;;;;;;;10.98;9.85;;;10.50;99.90;;;;;;5003943;28;20257;-39
2021/04/11 10:48:30;;;;;;;9.27;8.48;;;10.30;99.90;;;;;;5035500;22;20269;-83
2021/04/11 10:51:23;;;;;;;10.55;8.68;;;10.10;99.90;;;;;;5034238;28;20263;-84
2021/04/11 10:54:27;;;;;;;10.00;9.10;;;10.00;99.90;;;;;;5027316;28;20758;-83
2021/04/11 10:57:10;;;;;;;10.15;9.15;;;9.60;99.90;;;;;;4983442;28;20767;-82
2021/04/11 10:59:59;;;;;;;10.45;9.55;;;9.40;99.90;;;;;;5020761;28;20223;-83
2021/04/11 11:03:16;;;;;;;11.25;9.38;;;9.20;99.90;;;;;;5062478;23;20232;-37
2021/04/11 11:06:06;;;;;;;8.68;7.82;;;9.20;99.90;;;;;;5035915;28;20596;-35
2021/04/11 11:08:58;;;;;;;9.90;9.02;;;9.10;99.90;;;;;;5056822;28;20739;-36
2021/04/11 11:11:41;;;;;;;11.10;9.98;;;9.00;99.90;;;;;;5051851;28;20256;-36
2021/04/11 11:14:18;;;;;;;13.80;11.35;;;9.10;99.90;;;;;;5066463;28;20213;-36
2021/04/11 11:17:04;;;;;;;10.48;9.48;;;9.20;99.90;;;;;;5046262;22;20235;-35
2021/04/11 11:19:56;;;;;;;13.10;11.77;;;9.50;99.90;;;;;;5018964;28;20630;-35
2021/04/11 11:22:49;;;;;;;14.20;12.70;;;9.60;99.90;;;;;;5021094;28;20207;-36
2021/04/11 11:25:38;;;;;;;13.85;12.45;;;9.40;99.90;;;;;;5019664;28;20207;-34
2021/04/11 11:28:22;;;;;;;16.25;13.30;;;9.20;99.90;;;;;;5015388;28;20234;-35
2021/04/11 11:31:20;;;;;;;13.73;12.27;;;9.20;99.90;;;;;;5016138;28;20204;-34
2021/04/11 11:33:58;;;;;;;12.85;11.55;;;9.20;99.90;;;;;;5011567;28;20200;-34
2021/04/11 11:36:35;;;;;;;16.23;14.05;;;9.10;99.90;;;;;;5015324;28;20229;-34
2021/04/11 11:39:19;;;;;;;15.65;14.02;;;9.10;99.90;;;;;;5015330;28;20679;-36
2021/04/11 11:41:54;;;;;;;14.65;13.23;;;8.90;99.90;;;;;;5015323;28;20331;-36
2021/04/11 11:44:24;;;;;;;14.40;12.50;;;8.70;99.90;;;;;;5015399;28;20574;-35
2021/04/11 11:47:00;;;;;;;15.10;13.60;;;8.80;99.90;;;;;;5015559;28;20248;-34
2021/04/11 11:49:33;;;;;;;13.82;12.50;;;8.80;99.90;;;;;;5005562;28;20200;-35
2021/04/11 11:52:05;;;;;;;15.65;13.52;;;8.70;99.90;;;;;;5013730;28;20678;-34
2021/04/11 11:54:39;;;;;;;14.02;11.95;;;8.70;99.90;;;;;;5014935;28;20738;-35
2021/04/11 11:57:20;;;;;;;14.38;12.25;;;8.30;99.90;;;;;;5011296;28;20217;-35
2021/04/11 11:59:57;;;;;;;15.27;13.75;;;8.20;99.90;;;;;;5014894;28;20215;-35
2021/04/11 12:02:38;;;;;;;14.13;12.48;;;8.20;99.90;;;;;;5015468;28;20675;-35
2021/04/11 12:05:13;;;;;;;12.35;11.10;;;8.20;99.90;;;;;;5015068;28;20248;-35
2021/04/11 12:07:45;;;;;;;15.15;13.55;;;8.20;99.90;;;;;;5015461;28;20570;-37
2021/04/11 12:10:23;;;;;;;14.82;12.93;;;8.00;99.90;;;;;;5010631;28;20704;-35
2021/04/11 12:13:01;;;;;;;13.20;11.90;;;8.10;99.90;;;;;;5009367;28;20279;-34
2021/04/11 12:15:32;;;;;;;15.10;12.88;;;7.90;99.90;;;;;;5014265;28;20220;-35
2021/04/11 12:18:06;;;;;;;11.52;10.30;;;7.70;99.90;;;;;;4997537;28;20801;-35
2021/04/11 12:20:38;;;;;;;13.68;12.27;;;7.70;99.90;;;;;;5015364;28;20641;-36
2021/04/11 12:23:13;;;;;;;13.82;12.32;;;7.70;99.90;;;;;;5015562;28;20212;-34
2021/04/11 12:25:40;;;;;;;13.80;11.80;;;7.70;99.90;;;;;;5015713;28;20246;-35
2021/04/11 12:28:22;;;;;;;12.52;11.25;;;7.70;99.90;;;;;;5015650;28;20246;-35
2021/04/11 12:30:51;;;;;;;11.70;10.10;;;7.70;99.90;;;;;;5015862;28;20208;-35
2021/04/11 12:33:26;;;;;;;10.80;9.73;;;7.80;99.90;;;;;;5012450;28;20207;-34
2021/04/11 12:36:04;;;;;;;10.35;9.35;;;7.90;99.90;;;;;;5012310;28;20238;-34
2021/04/11 12:38:41;;;;;;;9.73;8.90;;;7.80;99.90;;;;;;5013222;28;20247;-35
2021/04/11 12:41:17;;;;;;;12.38;10.35;;;7.40;99.90;;;;;;5012505;28;20587;-35
2021/04/11 12:43:51;;;;;;;10.50;7.68;;;7.40;99.90;;;;;;5012488;28;20203;-35
2021/04/11 12:46:27;;;;;;;17.52;15.75;;;7.30;99.90;;;;;;5012098;28;20748;-35
2021/04/11 12:49:01;;;;;;;9.27;8.40;;;7.40;99.90;;;;;;5012279;28;20235;-36
2021/04/11 12:51:33;;;;;;;7.88;7.07;;;7.50;99.90;;;;;;5012389;28;20571;-34
2021/04/11 12:54:08;;;;;;;8.23;7.53;;;7.40;99.90;;;;;;5012370;28;20675;-33
2021/04/11 12:56:40;;;;;;;7.50;6.90;;;7.20;99.90;;;;;;5012229;28;20223;-35
2021/04/11 12:59:17;;;;;;;10.48;9.30;;;7.10;99.90;;;;;;5012478;28;20208;-34
2021/04/11 13:01:47;;;;;;;8.57;7.72;;;7.00;99.90;;;;;;5012118;28;20222;-36
2021/04/11 13:04:28;;;;;;;7.88;7.18;;;7.00;99.90;;;;;;5012432;28;20206;-35
2021/04/11 13:07:07;;;;;;;7.40;6.45;;;7.00;99.90;;;;;;5012070;28;20220;-35
2021/04/11 13:09:52;;;;;;;6.07;5.57;;;7.20;99.90;;;;;;5011911;28;20615;-41
2021/04/11 13:12:27;;;;;;;7.20;5.85;;;7.10;99.90;;;;;;5011266;28;20243;-36
2021/04/11 13:15:01;;;;;;;6.05;5.57;;;7.20;99.90;;;;;;5011570;28;20205;-35
2021/04/11 13:17:37;;;;;;;5.13;4.72;;;7.00;99.90;;;;;;5011738;28;20220;-35
2021/04/11 13:20:10;;;;;;;6.13;5.63;;;6.90;99.90;;;;;;5012119;28;20241;-35
2021/04/11 13:22:47;;;;;;;4.45;4.05;;;6.90;99.90;;;;;;5011770;28;20200;-36
2021/04/11 13:25:22;;;;;;;4.40;4.10;;;6.70;99.90;;;;;;4994180;28;20245;-34
2021/04/11 13:28:03;;;;;;;5.38;4.97;;;6.60;99.90;;;;;;5011548;28;20224;-35
2021/04/11 13:30:35;;;;;;;4.53;4.07;;;6.50;99.90;;;;;;4994131;28;20204;-35
2021/04/11 13:33:09;;;;;;;3.70;3.50;;;6.60;99.90;;;;;;5011201;28;20199;-33